Time;durP1;ratioP1;P1;durP2;ratioP2;P2;SDS_P1;SDS_P2;PMS_P1;PMS_P2;Temp;Humidity;BMP_temperature;BMP_pressure;BME280_temperature;BME280_humidity;BME280_pressure;Samples;Min_cycle;Max_cycle;Signal;HPM_P1;HPM_P2
2023/03/09 00:02:24;;;;;;;15.40;8.30;;;2.10;99.90;;;;;;5050805;28;20047;-64
2023/03/09 00:04:49;;;;;;;15.25;8.00;;;2.00;99.90;;;;;;5044724;28;20483;-63
2023/03/09 00:07:15;;;;;;;15.00;7.88;;;2.10;99.90;;;;;;5051151;28;20083;-62
2023/03/09 00:09:40;;;;;;;15.50;8.38;;;2.10;99.90;;;;;;5040972;28;20045;-64
2023/03/09 00:12:07;;;;;;;14.38;7.60;;;2.00;99.90;;;;;;5053924;28;20504;-64
2023/03/09 00:14:32;;;;;;;16.23;7.82;;;2.00;99.90;;;;;;5054456;28;20033;-64
2023/03/09 00:16:58;;;;;;;16.50;9.00;;;2.10;99.90;;;;;;5043804;28;20539;-63
2023/03/09 00:19:26;;;;;;;15.45;8.15;;;2.10;99.90;;;;;;5044490;28;20132;-62
2023/03/09 00:21:56;;;;;;;13.77;7.75;;;2.00;99.90;;;;;;5053976;28;20040;-64
2023/03/09 00:24:27;;;;;;;16.15;8.45;;;2.00;99.90;;;;;;5051045;28;20041;-61
2023/03/09 00:26:56;;;;;;;16.88;8.90;;;1.90;99.90;;;;;;5046473;28;20037;-64
2023/03/09 00:29:24;;;;;;;16.67;8.93;;;1.90;99.90;;;;;;5053005;28;20064;-63
2023/03/09 00:31:49;;;;;;;15.43;8.23;;;1.90;99.90;;;;;;5054178;28;20040;-64
2023/03/09 00:34:16;;;;;;;19.00;9.25;;;1.80;99.90;;;;;;5033596;28;20145;-64
2023/03/09 00:36:42;;;;;;;16.08;7.90;;;1.80;99.90;;;;;;5043610;28;20075;-64
2023/03/09 00:39:09;;;;;;;14.77;7.82;;;1.80;99.90;;;;;;5053497;28;20036;-64
2023/03/09 00:41:35;;;;;;;17.77;9.10;;;1.80;99.90;;;;;;5048871;28;20142;-64
2023/03/09 00:44:02;;;;;;;18.17;9.05;;;1.70;99.90;;;;;;5084405;22;20069;-62
2023/03/09 00:46:29;;;;;;;18.95;9.77;;;1.70;99.90;;;;;;5053555;28;20075;-62
2023/03/09 00:48:54;;;;;;;16.33;8.95;;;1.70;99.90;;;;;;5035241;28;20071;-62
2023/03/09 00:51:20;;;;;;;20.45;9.38;;;1.70;99.90;;;;;;5038595;28;20052;-61
2023/03/09 00:53:46;;;;;;;19.40;10.10;;;1.70;99.90;;;;;;5051881;28;20045;-61
2023/03/09 00:56:17;;;;;;;19.77;9.15;;;1.60;99.90;;;;;;5053131;28;20037;-62
2023/03/09 00:58:43;;;;;;;17.52;9.07;;;1.70;99.90;;;;;;5049812;28;20474;-62
2023/03/09 01:01:11;;;;;;;20.38;9.27;;;1.60;99.90;;;;;;5042944;28;20499;-62
2023/03/09 01:03:37;;;;;;;16.23;8.25;;;1.60;99.90;;;;;;5050820;28;20099;-62
2023/03/09 01:06:04;;;;;;;18.27;9.35;;;1.60;99.90;;;;;;5049578;28;20072;-64
2023/03/09 01:08:30;;;;;;;20.33;9.45;;;1.60;99.90;;;;;;5041801;28;20446;-62
2023/03/09 01:10:56;;;;;;;18.98;9.73;;;1.60;99.90;;;;;;5052412;28;20032;-62
2023/03/09 01:13:22;;;;;;;21.27;10.02;;;1.60;99.90;;;;;;5052903;28;20041;-62
2023/03/09 01:15:48;;;;;;;19.85;9.60;;;1.60;99.90;;;;;;5023420;28;20045;-62
2023/03/09 01:18:13;;;;;;;17.60;9.38;;;1.50;99.90;;;;;;5052115;28;20036;-62
2023/03/09 01:20:39;;;;;;;19.52;9.38;;;1.50;99.90;;;;;;5049710;28;20506;-61
2023/03/09 01:23:04;;;;;;;19.90;9.35;;;1.50;99.90;;;;;;5047343;28;20037;-62
2023/03/09 01:25:30;;;;;;;17.65;9.27;;;1.50;99.90;;;;;;5051651;28;20036;-62
2023/03/09 01:27:56;;;;;;;18.73;9.32;;;1.50;99.90;;;;;;5041990;28;20479;-61
2023/03/09 01:30:21;;;;;;;20.15;10.20;;;1.50;99.90;;;;;;5052964;28;20037;-61
2023/03/09 01:32:47;;;;;;;17.83;9.27;;;1.50;99.90;;;;;;5044218;28;21268;-61
2023/03/09 01:35:12;;;;;;;17.27;9.40;;;1.50;99.90;;;;;;5046404;28;20045;-62
2023/03/09 01:37:38;;;;;;;17.77;8.55;;;1.50;99.90;;;;;;5052449;28;20040;-62
2023/03/09 01:40:06;;;;;;;18.15;9.30;;;1.50;99.90;;;;;;5042953;28;20392;-62
2023/03/09 01:42:36;;;;;;;17.80;8.35;;;1.50;99.90;;;;;;5040566;28;20471;-63
2023/03/09 01:45:19;;;;;;;16.00;8.70;;;1.40;99.90;;;;;;5052090;28;20406;-62
2023/03/09 01:47:46;;;;;;;17.90;9.52;;;1.40;99.90;;;;;;5052445;28;20053;-62
2023/03/09 01:50:16;;;;;;;16.88;8.27;;;1.40;99.90;;;;;;5048929;28;20517;-62
2023/03/09 01:52:44;;;;;;;18.27;9.48;;;1.40;99.90;;;;;;5051245;28;20044;-62
2023/03/09 01:55:13;;;;;;;18.88;8.85;;;1.40;99.90;;;;;;5052422;28;20033;-62
2023/03/09 01:58:01;;;;;;;18.92;9.60;;;1.40;99.90;;;;;;5043589;28;20482;-62
2023/03/09 02:00:27;;;;;;;19.83;10.05;;;1.40;99.90;;;;;;5048475;28;20040;-62
2023/03/09 02:03:01;;;;;;;18.58;8.95;;;1.30;99.90;;;;;;5032125;28;20439;-62
2023/03/09 02:05:53;;;;;;;18.13;9.45;;;1.40;99.90;;;;;;5030006;28;20041;-62
2023/03/09 02:08:21;;;;;;;;;;;1.40;99.90;;;;;;5046257;28;20076;-63
2023/03/09 02:10:57;;;;;;;18.15;8.57;;;1.40;99.90;;;;;;5051756;28;19978;-62
2023/03/09 02:13:34;;;;;;;19.75;9.05;;;1.30;99.90;;;;;;5035687;28;20073;-62
2023/03/09 02:16:00;;;;;;;19.02;9.52;;;1.30;99.90;;;;;;5036652;28;20041;-63
2023/03/09 02:18:26;;;;;;;23.25;10.25;;;1.30;99.90;;;;;;5051525;28;20029;-62
2023/03/09 02:21:09;;;;;;;17.58;9.55;;;1.30;99.90;;;;;;5044642;28;20402;-62
2023/03/09 02:23:39;;;;;;;17.33;8.40;;;1.30;99.90;;;;;;5048690;28;20098;-62
2023/03/09 02:26:13;;;;;;;18.10;9.07;;;1.30;99.90;;;;;;5051348;28;20041;-62
2023/03/09 02:28:39;;;;;;;17.55;9.02;;;1.30;99.90;;;;;;5051956;28;20117;-62
2023/03/09 02:31:06;;;;;;;24.25;10.00;;;1.30;99.90;;;;;;5039924;28;20122;-63
2023/03/09 02:33:32;;;;;;;19.65;8.48;;;1.30;99.90;;;;;;5048690;28;20499;-63
2023/03/09 02:35:59;;;;;;;18.10;9.05;;;1.30;99.90;;;;;;5051866;28;20047;-62
2023/03/09 02:38:25;;;;;;;17.02;9.38;;;1.30;99.90;;;;;;5044701;28;20032;-63
2023/03/09 02:40:53;;;;;;;16.63;8.68;;;1.40;99.90;;;;;;5043066;28;20029;-62
2023/03/09 02:43:24;;;;;;;16.58;8.82;;;1.30;99.90;;;;;;5051034;28;20048;-62
2023/03/09 02:45:51;;;;;;;17.42;9.55;;;1.30;99.90;;;;;;5047826;28;20043;-62
2023/03/09 02:48:16;;;;;;;18.00;8.93;;;1.30;99.90;;;;;;5039416;28;20399;-62
2023/03/09 02:50:43;;;;;;;21.45;8.57;;;1.40;99.90;;;;;;5049553;28;20036;-62
2023/03/09 02:53:09;;;;;;;19.90;9.40;;;1.30;99.90;;;;;;5051284;28;20071;-62
2023/03/09 02:55:35;;;;;;;16.85;8.65;;;1.30;99.90;;;;;;5041277;28;20444;-61
2023/03/09 02:58:00;;;;;;;19.65;9.63;;;1.30;99.90;;;;;;5045015;28;20078;-64
2023/03/09 03:00:26;;;;;;;17.38;9.05;;;1.30;99.90;;;;;;5051447;28;20502;-62
2023/03/09 03:02:52;;;;;;;19.15;9.07;;;1.30;99.90;;;;;;5039008;28;20119;-64
2023/03/09 03:05:18;;;;;;;19.20;9.75;;;1.40;99.90;;;;;;5038326;28;20042;-62
2023/03/09 03:07:43;;;;;;;19.60;9.70;;;1.30;99.90;;;;;;5048739;28;20033;-62
2023/03/09 03:10:10;;;;;;;19.55;9.68;;;1.30;99.90;;;;;;5051497;28;20041;-63
2023/03/09 03:12:36;;;;;;;20.77;9.90;;;1.30;99.90;;;;;;5051385;28;20052;-62
2023/03/09 03:15:02;;;;;;;20.38;9.52;;;1.30;99.90;;;;;;5033812;28;20382;-62
2023/03/09 03:17:27;;;;;;;20.25;9.65;;;1.30;99.90;;;;;;5047141;28;20044;-62
2023/03/09 03:19:54;;;;;;;19.15;9.38;;;1.40;99.90;;;;;;5048134;28;20029;-63
2023/03/09 03:22:19;;;;;;;18.58;9.60;;;1.40;99.90;;;;;;5043103;28;20034;-63
2023/03/09 03:24:45;;;;;;;18.27;8.95;;;1.40;99.90;;;;;;5053420;28;20040;-64
2023/03/09 03:27:11;;;;;;;18.15;9.50;;;1.40;99.90;;;;;;5055446;28;20045;-62
2023/03/09 03:29:36;;;;;;;21.75;10.10;;;1.40;99.90;;;;;;5046091;28;20044;-64
2023/03/09 03:32:02;;;;;;;22.67;11.10;;;1.40;99.90;;;;;;5040854;28;20458;-62
2023/03/09 03:34:28;;;;;;;23.05;10.98;;;1.40;99.90;;;;;;5054651;28;20037;-62
2023/03/09 03:36:54;;;;;;;25.25;10.55;;;1.40;99.90;;;;;;5048070;28;20044;-62
2023/03/09 03:39:19;;;;;;;22.38;10.80;;;1.40;99.90;;;;;;5044114;28;20033;-63
2023/03/09 03:41:45;;;;;;;21.10;11.07;;;1.40;99.90;;;;;;5054530;28;20040;-62
2023/03/09 03:44:11;;;;;;;22.85;11.07;;;1.40;99.90;;;;;;5054799;28;20402;-62
2023/03/09 03:46:36;;;;;;;21.60;10.55;;;1.40;99.90;;;;;;5046974;28;20063;-62
2023/03/09 03:49:02;;;;;;;21.40;11.05;;;1.40;99.90;;;;;;5043794;28;20123;-62
2023/03/09 03:51:28;;;;;;;21.27;10.80;;;1.40;99.90;;;;;;5054352;28;20044;-62
2023/03/09 03:53:53;;;;;;;24.75;11.05;;;1.40;99.90;;;;;;5050721;28;20549;-62
2023/03/09 03:56:19;;;;;;;24.90;10.90;;;1.40;99.90;;;;;;5054135;28;20402;-62
2023/03/09 03:58:45;;;;;;;22.67;11.25;;;1.40;99.90;;;;;;5053982;28;20032;-62
2023/03/09 04:01:10;;;;;;;21.23;10.65;;;1.40;99.90;;;;;;5054688;28;20495;-63
2023/03/09 04:03:36;;;;;;;22.38;11.15;;;1.40;99.90;;;;;;5050142;28;20045;-62
2023/03/09 04:06:02;;;;;;;23.25;10.93;;;1.40;99.90;;;;;;5053721;28;20541;-62
2023/03/09 04:08:28;;;;;;;23.10;11.48;;;1.40;99.90;;;;;;5054261;28;20044;-63
2023/03/09 04:10:54;;;;;;;25.48;11.18;;;1.50;99.90;;;;;;5050329;28;20114;-62
2023/03/09 04:13:20;;;;;;;25.38;11.40;;;1.40;99.90;;;;;;5053930;28;20073;-62
2023/03/09 04:15:46;;;;;;;24.83;11.25;;;1.40;99.90;;;;;;5053953;28;20575;-62
2023/03/09 04:18:12;;;;;;;24.08;11.90;;;1.40;99.90;;;;;;5045526;28;20124;-63
2023/03/09 04:20:39;;;;;;;25.50;11.70;;;1.50;99.90;;;;;;5049229;28;20036;-62
2023/03/09 04:23:05;;;;;;;24.67;11.73;;;1.50;99.90;;;;;;5054130;28;20047;-62
2023/03/09 04:25:30;;;;;;;21.63;11.57;;;1.50;99.90;;;;;;5054441;28;20037;-62
2023/03/09 04:27:56;;;;;;;24.17;11.27;;;1.50;99.90;;;;;;5046740;28;20052;-62
2023/03/09 04:30:23;;;;;;;25.70;11.98;;;1.50;99.90;;;;;;5050752;28;20098;-62
2023/03/09 04:32:49;;;;;;;24.40;11.73;;;1.50;99.90;;;;;;5053697;28;20044;-61
2023/03/09 04:35:15;;;;;;;25.00;11.88;;;1.50;99.90;;;;;;5043684;28;20088;-63
2023/03/09 04:37:41;;;;;;;27.35;12.43;;;1.50;99.90;;;;;;5049080;28;20514;-63
2023/03/09 04:40:07;;;;;;;23.30;11.95;;;1.50;99.90;;;;;;5053872;28;20071;-63
2023/03/09 04:42:32;;;;;;;25.52;11.40;;;1.50;99.90;;;;;;5046497;28;20037;-62
2023/03/09 04:44:58;;;;;;;23.27;11.52;;;1.50;99.90;;;;;;5040401;28;20033;-63
2023/03/09 04:47:24;;;;;;;26.48;11.82;;;1.50;99.90;;;;;;5033656;28;20033;-63
2023/03/09 04:49:49;;;;;;;23.58;10.90;;;1.50;99.90;;;;;;5042710;28;20534;-62
2023/03/09 04:52:15;;;;;;;22.67;12.13;;;1.50;99.90;;;;;;5052721;28;20045;-61
2023/03/09 04:54:41;;;;;;;23.08;11.15;;;1.50;99.90;;;;;;5047211;28;20066;-62
2023/03/09 04:57:07;;;;;;;23.85;11.40;;;1.50;99.90;;;;;;5043317;28;20195;-62
2023/03/09 04:59:32;;;;;;;24.35;11.57;;;1.50;99.90;;;;;;5052602;28;20033;-62
2023/03/09 05:01:58;;;;;;;23.83;11.07;;;1.50;99.90;;;;;;5042603;28;20036;-62
2023/03/09 05:04:24;;;;;;;23.67;11.32;;;1.40;99.90;;;;;;5052647;28;20033;-62
2023/03/09 05:06:50;;;;;;;22.35;11.25;;;1.40;99.90;;;;;;5053358;28;20047;-62
2023/03/09 05:09:16;;;;;;;21.40;10.73;;;1.40;99.90;;;;;;5040232;28;20033;-61
2023/03/09 05:11:42;;;;;;;20.95;11.07;;;1.40;99.90;;;;;;5045544;28;20114;-61
2023/03/09 05:14:08;;;;;;;20.67;10.32;;;1.30;99.90;;;;;;5052322;28;20048;-62
2023/03/09 05:16:34;;;;;;;21.30;9.65;;;1.40;99.90;;;;;;5040602;28;20038;-61
2023/03/09 05:19:00;;;;;;;23.20;11.13;;;1.30;99.90;;;;;;5047385;28;20708;-61
2023/03/09 05:21:25;;;;;;;23.05;10.85;;;1.30;99.90;;;;;;5051466;28;20411;-62
2023/03/09 05:23:51;;;;;;;24.58;10.93;;;1.30;99.90;;;;;;5052921;28;20118;-62
2023/03/09 05:26:17;;;;;;;22.13;10.85;;;1.30;99.90;;;;;;5047174;28;20037;-62
2023/03/09 05:28:42;;;;;;;20.00;10.30;;;1.30;99.90;;;;;;5040042;28;20037;-62
2023/03/09 05:31:10;;;;;;;22.33;10.45;;;1.30;99.90;;;;;;5052389;28;20064;-61
2023/03/09 05:33:36;;;;;;;19.60;10.18;;;1.30;99.90;;;;;;5047387;28;20114;-62
2023/03/09 05:36:02;;;;;;;21.90;11.13;;;1.30;99.90;;;;;;5048934;28;20075;-62
2023/03/09 05:38:27;;;;;;;22.02;10.38;;;1.30;99.90;;;;;;5050882;28;20380;-62
2023/03/09 05:40:53;;;;;;;22.27;11.13;;;1.30;99.90;;;;;;5052660;28;20044;-62
2023/03/09 05:43:19;;;;;;;22.42;10.07;;;1.30;99.90;;;;;;5041626;28;20025;-61
2023/03/09 05:45:52;;;;;;;21.92;10.80;;;1.30;99.90;;;;;;5048409;28;20527;-61
2023/03/09 05:48:18;;;;;;;21.02;10.07;;;1.40;99.90;;;;;;5050942;28;20457;-65
2023/03/09 05:50:43;;;;;;;23.58;11.10;;;1.40;99.90;;;;;;5033588;28;20571;-62
2023/03/09 05:53:09;;;;;;;20.67;10.82;;;1.40;99.90;;;;;;5045879;28;20041;-62
2023/03/09 05:55:35;;;;;;;22.02;10.90;;;1.40;99.90;;;;;;5051250;28;20124;-62
2023/03/09 05:58:00;;;;;;;23.85;10.65;;;1.40;99.90;;;;;;5043834;28;20056;-61
2023/03/09 06:00:26;;;;;;;20.08;10.57;;;1.40;99.90;;;;;;5047256;28;20134;-64
2023/03/09 06:02:52;;;;;;;22.45;11.18;;;1.40;99.90;;;;;;5051404;28;20045;-61
2023/03/09 06:05:17;;;;;;;22.67;10.90;;;1.40;99.90;;;;;;5052162;28;20033;-63
2023/03/09 06:07:43;;;;;;;21.85;10.35;;;1.40;99.90;;;;;;5043837;28;20052;-63
2023/03/09 06:10:10;;;;;;;22.50;11.27;;;1.40;99.90;;;;;;5051416;28;20064;-63
2023/03/09 06:12:36;;;;;;;20.58;10.48;;;1.40;99.90;;;;;;5051700;28;20091;-63
2023/03/09 06:15:02;;;;;;;22.67;10.77;;;1.40;99.90;;;;;;5044833;28;20044;-63
2023/03/09 06:17:28;;;;;;;23.85;11.15;;;1.50;99.90;;;;;;5032199;28;20057;-63
2023/03/09 06:19:53;;;;;;;23.23;10.85;;;1.50;99.90;;;;;;5051487;28;20032;-63
2023/03/09 06:22:19;;;;;;;23.35;11.20;;;1.50;99.90;;;;;;5047321;28;20451;-63
2023/03/09 06:24:45;;;;;;;22.35;10.88;;;1.50;99.90;;;;;;5032831;28;20040;-63
2023/03/09 06:27:10;;;;;;;22.42;10.73;;;1.50;99.90;;;;;;5047920;28;20064;-63
2023/03/09 06:29:36;;;;;;;22.35;10.90;;;1.50;99.90;;;;;;5049840;28;20052;-63
2023/03/09 06:32:02;;;;;;;22.27;11.23;;;1.60;99.90;;;;;;5048656;28;20135;-63
2023/03/09 06:34:30;;;;;;;22.63;10.90;;;1.60;99.90;;;;;;5035035;28;20060;-63
2023/03/09 06:36:56;;;;;;;25.23;11.85;;;1.60;99.90;;;;;;5032021;28;20418;-63
2023/03/09 06:39:22;;;;;;;24.60;11.63;;;1.60;99.90;;;;;;5051426;28;20063;-62
2023/03/09 06:41:47;;;;;;;27.20;12.13;;;1.60;99.90;;;;;;5039552;28;20521;-62
2023/03/09 06:44:13;;;;;;;23.95;11.27;;;1.60;99.90;;;;;;5043674;22;20136;-61
2023/03/09 06:46:39;;;;;;;25.52;11.75;;;1.60;99.90;;;;;;5050998;28;20073;-62
2023/03/09 06:49:04;;;;;;;25.42;11.75;;;1.60;99.90;;;;;;5048844;28;20040;-62
2023/03/09 06:51:30;;;;;;;24.67;12.10;;;1.60;99.90;;;;;;5042168;28;20028;-62
2023/03/09 06:53:57;;;;;;;25.17;12.27;;;1.60;99.90;;;;;;5050639;28;20044;-63
2023/03/09 06:56:22;;;;;;;26.80;12.65;;;1.60;99.90;;;;;;5051366;28;20056;-61
2023/03/09 06:58:48;;;;;;;26.20;12.75;;;1.60;99.90;;;;;;5034913;28;20045;-63
2023/03/09 07:01:16;;;;;;;23.45;11.88;;;1.70;99.90;;;;;;5047245;28;20074;-61
2023/03/09 07:03:42;;;;;;;27.65;13.38;;;1.70;99.90;;;;;;5051007;28;20078;-61
2023/03/09 07:06:08;;;;;;;26.80;12.38;;;1.80;99.90;;;;;;5051430;28;20044;-61
2023/03/09 07:08:34;;;;;;;25.73;12.55;;;1.90;99.90;;;;;;5024279;28;20042;-62
2023/03/09 07:11:00;;;;;;;27.55;13.13;;;1.90;99.90;;;;;;5046050;28;20029;-62
2023/03/09 07:13:25;;;;;;;26.63;13.30;;;2.00;99.90;;;;;;5050503;28;20520;-61
2023/03/09 07:15:51;;;;;;;26.52;12.85;;;2.10;99.90;;;;;;5044011;28;20039;-61
2023/03/09 07:18:17;;;;;;;26.23;12.38;;;2.20;99.90;;;;;;5050443;28;20119;-62
2023/03/09 07:20:43;;;;;;;29.40;13.18;;;2.20;99.90;;;;;;5050713;28;20069;-63
2023/03/09 07:23:10;;;;;;;28.27;13.73;;;2.30;99.90;;;;;;5043150;28;20061;-61
2023/03/09 07:25:37;;;;;;;28.13;13.20;;;2.30;99.90;;;;;;5043349;28;20025;-61
2023/03/09 07:28:07;;;;;;;25.38;12.02;;;2.30;99.90;;;;;;5050256;28;20112;-62
2023/03/09 07:30:33;;;;;;;25.20;13.10;;;2.40;99.90;;;;;;5040486;28;20136;-62
2023/03/09 07:32:59;;;;;;;28.65;13.40;;;2.40;99.90;;;;;;5038851;28;20140;-63
2023/03/09 07:35:25;;;;;;;26.50;12.80;;;2.40;99.90;;;;;;5046475;28;20036;-63
2023/03/09 07:37:51;;;;;;;23.77;12.13;;;2.40;99.90;;;;;;5032622;28;20052;-63
2023/03/09 07:40:18;;;;;;;28.10;13.07;;;2.40;99.90;;;;;;5037322;28;20041;-61
2023/03/09 07:42:46;;;;;;;31.55;13.45;;;2.40;99.90;;;;;;5048570;28;20061;-62
2023/03/09 07:45:11;;;;;;;28.58;13.20;;;2.50;99.90;;;;;;5050581;28;20575;-63
2023/03/09 07:47:37;;;;;;;27.70;13.68;;;2.50;99.90;;;;;;5042792;28;20044;-61
2023/03/09 07:50:04;;;;;;;26.77;13.48;;;2.60;99.90;;;;;;5039619;28;20120;-62
2023/03/09 07:52:32;;;;;;;26.80;13.15;;;2.70;99.90;;;;;;5050390;28;20064;-61
2023/03/09 07:54:59;;;;;;;26.25;13.15;;;2.70;99.90;;;;;;5046248;28;20048;-62
2023/03/09 07:57:29;;;;;;;27.70;13.35;;;2.80;99.90;;;;;;5033377;28;20033;-61
2023/03/09 07:59:54;;;;;;;25.75;12.60;;;2.90;99.90;;;;;;5024833;28;20037;-61
2023/03/09 08:02:20;;;;;;;27.10;12.80;;;2.80;99.90;;;;;;5050310;28;20207;-62
2023/03/09 08:04:46;;;;;;;24.67;12.63;;;2.80;99.90;;;;;;5037323;28;20037;-62
2023/03/09 08:07:12;;;;;;;27.63;13.57;;;2.80;99.90;;;;;;5041864;28;20071;-61
2023/03/09 08:09:38;;;;;;;30.55;13.35;;;2.80;99.90;;;;;;5053059;28;20059;-62
2023/03/09 08:12:04;;;;;;;24.98;12.43;;;2.80;99.90;;;;;;5047215;28;20045;-62
2023/03/09 08:14:30;;;;;;;25.90;13.00;;;2.80;99.90;;;;;;5037418;28;20064;-61
2023/03/09 08:16:56;;;;;;;25.08;12.93;;;2.80;99.90;;;;;;5053886;28;20638;-61
2023/03/09 08:19:22;;;;;;;25.48;13.07;;;2.80;99.90;;;;;;5054010;28;20033;-62
2023/03/09 08:21:48;;;;;;;24.98;13.05;;;2.80;99.90;;;;;;5046493;28;20505;-61
2023/03/09 08:24:15;;;;;;;26.88;13.45;;;2.80;99.90;;;;;;5030211;28;20034;-62
2023/03/09 08:26:41;;;;;;;28.00;12.88;;;3.00;99.90;;;;;;5043724;28;20119;-61
2023/03/09 08:29:06;;;;;;;24.95;12.68;;;3.00;99.90;;;;;;5053668;28;20044;-61
2023/03/09 08:31:33;;;;;;;27.10;13.73;;;3.10;99.90;;;;;;5045614;28;20036;-61
2023/03/09 08:33:59;;;;;;;28.67;13.20;;;3.00;99.90;;;;;;5038460;28;20032;-62
2023/03/09 08:36:25;;;;;;;25.85;13.70;;;3.00;99.90;;;;;;5053286;28;20051;-62
2023/03/09 08:38:51;;;;;;;26.10;13.32;;;3.00;99.90;;;;;;5040590;28;20033;-62
2023/03/09 08:41:17;;;;;;;26.10;13.57;;;3.00;99.90;;;;;;5050794;28;20041;-61
2023/03/09 08:43:44;;;;;;;29.52;14.13;;;3.00;99.90;;;;;;5053484;28;20043;-62
2023/03/09 08:46:09;;;;;;;27.63;13.23;;;3.00;99.90;;;;;;5050606;28;20033;-63
2023/03/09 08:48:35;;;;;;;24.63;12.77;;;3.10;99.90;;;;;;5052273;28;20420;-62
2023/03/09 08:51:04;;;;;;;24.23;12.38;;;3.10;99.90;;;;;;5045302;28;20548;-62
2023/03/09 08:53:30;;;;;;;28.02;13.85;;;3.20;99.90;;;;;;5047981;28;20041;-62
2023/03/09 08:55:56;;;;;;;24.48;12.85;;;3.20;99.90;;;;;;5040682;28;20544;-62
2023/03/09 08:58:21;;;;;;;26.88;12.90;;;3.20;99.90;;;;;;5050653;28;20037;-62
2023/03/09 09:00:48;;;;;;;28.38;13.75;;;3.30;99.90;;;;;;5051478;28;20052;-62
2023/03/09 09:03:13;;;;;;;25.42;13.38;;;3.40;99.90;;;;;;5051859;28;20029;-62
2023/03/09 09:05:39;;;;;;;24.38;12.98;;;3.50;99.90;;;;;;5041646;28;20410;-62
2023/03/09 09:08:05;;;;;;;27.95;13.38;;;3.70;99.90;;;;;;5045254;28;20043;-62
2023/03/09 09:10:30;;;;;;;26.13;13.13;;;3.80;99.90;;;;;;5050321;28;20049;-62
2023/03/09 09:12:56;;;;;;;24.13;12.60;;;3.90;99.90;;;;;;5048013;28;20068;-63
2023/03/09 09:15:22;;;;;;;27.50;14.00;;;3.90;99.90;;;;;;5052919;28;20139;-62
2023/03/09 09:17:47;;;;;;;24.77;12.10;;;3.90;99.90;;;;;;5052151;28;20037;-62
2023/03/09 09:20:14;;;;;;;26.98;13.73;;;3.90;99.90;;;;;;5053297;28;20033;-62
2023/03/09 09:22:41;;;;;;;26.55;13.13;;;3.90;99.90;;;;;;5040929;28;20487;-62
2023/03/09 09:25:08;;;;;;;24.23;13.00;;;3.90;99.90;;;;;;5052831;28;20036;-62
2023/03/09 09:27:35;;;;;;;27.95;13.93;;;3.90;99.90;;;;;;5049012;28;20037;-62
2023/03/09 09:30:02;;;;;;;25.30;13.48;;;3.90;99.90;;;;;;5045345;28;20148;-63
2023/03/09 09:32:28;;;;;;;24.70;12.60;;;3.90;99.90;;;;;;5052598;28;20116;-62
2023/03/09 09:34:54;;;;;;;26.15;12.98;;;3.80;99.90;;;;;;5052796;28;20116;-62
2023/03/09 09:37:19;;;;;;;26.05;12.57;;;3.80;99.90;;;;;;5042452;28;20372;-62
2023/03/09 09:39:45;;;;;;;25.63;13.50;;;3.90;99.90;;;;;;5050559;28;20037;-62
2023/03/09 09:42:20;;;;;;;24.98;12.73;;;3.90;99.90;;;;;;5052592;28;20091;-62
2023/03/09 09:44:50;;;;;;;24.75;13.00;;;3.90;99.90;;;;;;5048845;28;20032;-62
2023/03/09 09:47:25;;;;;;;25.85;12.80;;;3.90;99.90;;;;;;5041254;28;20411;-62
2023/03/09 09:49:54;;;;;;;24.70;12.93;;;3.90;99.90;;;;;;5051790;28;20048;-62
2023/03/09 09:52:36;;;;;;;26.55;12.75;;;3.90;99.90;;;;;;5047238;28;20401;-62
2023/03/09 09:55:25;;;;;;;24.70;12.98;;;3.90;99.90;;;;;;5044660;28;20044;-62
2023/03/09 09:58:12;;;;;;;25.88;12.40;;;4.00;99.90;;;;;;5049991;28;20041;-62
2023/03/09 10:00:46;;;;;;;23.13;12.50;;;4.00;99.90;;;;;;5045631;28;20056;-63
2023/03/09 10:03:30;;;;;;;24.65;13.05;;;4.00;99.90;;;;;;5045368;28;20068;-62
2023/03/09 10:06:01;;;;;;;25.15;13.35;;;4.00;99.90;;;;;;5043869;28;20039;-62
2023/03/09 10:08:40;;;;;;;22.75;12.55;;;4.10;99.90;;;;;;5051659;28;20128;-62
2023/03/09 10:11:33;;;;;;;25.20;12.90;;;4.10;99.90;;;;;;5024741;28;20048;-62
2023/03/09 10:14:16;;;;;;;26.35;12.80;;;4.00;99.90;;;;;;5044095;28;20033;-62
2023/03/09 10:16:54;;;;;;;24.65;12.95;;;4.10;99.90;;;;;;5048783;28;20076;-62
2023/03/09 10:19:34;;;;;;;27.13;13.32;;;4.10;99.90;;;;;;5043051;28;20037;-62
2023/03/09 10:22:04;;;;;;;25.48;12.88;;;4.20;99.90;;;;;;5044074;28;20498;-62
2023/03/09 10:24:37;;;;;;;24.15;12.73;;;4.20;99.90;;;;;;5051936;28;20124;-62
2023/03/09 10:27:24;;;;;;;25.85;13.05;;;4.20;99.90;;;;;;5040057;28;20067;-62
2023/03/09 10:30:17;;;;;;;25.67;13.35;;;4.30;99.90;;;;;;5050119;28;20044;-62
2023/03/09 10:32:52;;;;;;;26.42;13.73;;;4.30;99.90;;;;;;5052016;28;20036;-63
2023/03/09 10:35:24;;;;;;;25.42;13.07;;;4.40;99.90;;;;;;5035856;28;20375;-62
2023/03/09 10:37:50;;;;;;;;;;;4.40;99.90;;;;;;5041982;28;20040;-61
2023/03/09 10:40:26;;;;;;;25.42;12.43;;;4.30;99.90;;;;;;5034098;28;19928;-63
2023/03/09 10:42:52;;;;;;;25.50;12.77;;;4.30;99.90;;;;;;5029176;28;20037;-62
2023/03/09 10:45:28;;;;;;;25.13;13.50;;;4.30;99.90;;;;;;5049495;28;20044;-62
2023/03/09 10:48:08;;;;;;;24.00;12.57;;;4.30;99.90;;;;;;5043664;28;20037;-62
2023/03/09 10:50:40;;;;;;;39.80;13.93;;;4.30;99.90;;;;;;5044680;28;20510;-62
2023/03/09 10:53:35;;;;;;;27.30;13.55;;;4.30;99.90;;;;;;5043824;28;20039;-62
2023/03/09 10:56:16;;;;;;;29.75;14.18;;;4.50;99.90;;;;;;5047391;28;20055;-62
2023/03/09 10:58:42;;;;;;;29.58;13.93;;;4.60;99.90;;;;;;5047312;28;20041;-62
2023/03/09 11:01:10;;;;;;;26.45;13.35;;;4.60;99.90;;;;;;5040759;28;20087;-63
2023/03/09 11:03:38;;;;;;;28.83;14.07;;;4.60;99.90;;;;;;5049199;28;20041;-63
2023/03/09 11:06:13;;;;;;;27.38;14.27;;;4.70;99.90;;;;;;5050418;28;20541;-63
2023/03/09 11:08:41;;;;;;;28.75;14.15;;;4.70;99.90;;;;;;5037912;28;20509;-66
2023/03/09 11:11:20;;;;;;;26.33;13.80;;;4.70;99.90;;;;;;5046367;28;20077;-62
2023/03/09 11:13:46;;;;;;;26.13;13.73;;;4.60;99.90;;;;;;5042820;28;20446;-63
2023/03/09 11:16:19;;;;;;;26.95;14.32;;;4.60;99.90;;;;;;5050083;28;20041;-63
2023/03/09 11:18:45;;;;;;;28.13;14.45;;;4.50;99.90;;;;;;5047984;28;20037;-65
2023/03/09 11:21:21;;;;;;;28.50;15.15;;;4.50;99.90;;;;;;5039123;28;20041;-62
2023/03/09 11:23:51;;;;;;;25.73;14.00;;;4.60;99.90;;;;;;5046991;28;20041;-61
2023/03/09 11:26:35;;;;;;;26.67;14.07;;;4.70;99.90;;;;;;5034937;28;20037;-62
2023/03/09 11:29:01;;;;;;;26.75;14.27;;;4.80;99.90;;;;;;5042301;28;20029;-62
2023/03/09 11:31:40;;;;;;;28.10;15.45;;;4.80;99.90;;;;;;5050965;28;20518;-63
2023/03/09 11:34:11;;;;;;;26.10;13.88;;;4.70;99.90;;;;;;5039622;28;20064;-62
2023/03/09 11:36:52;;;;;;;27.67;14.77;;;4.70;99.90;;;;;;5047251;28;20041;-62
2023/03/09 11:39:41;;;;;;;26.65;14.23;;;4.60;99.90;;;;;;5049558;28;20044;-61
2023/03/09 11:42:13;;;;;;;31.73;15.23;;;4.70;99.90;;;;;;5030041;28;20042;-64
2023/03/09 11:44:39;;;;;;;;;;;4.80;99.90;;;;;;5032580;28;20036;-61
2023/03/09 11:47:23;;;;;;;30.50;13.52;;;4.80;99.90;;;;;;5053937;28;19932;-63
2023/03/09 11:49:50;;;;;;;26.95;14.05;;;4.80;99.90;;;;;;5046228;28;20590;-61
2023/03/09 11:52:30;;;;;;;28.95;14.55;;;4.80;99.90;;;;;;5041413;28;20043;-62
2023/03/09 11:55:00;;;;;;;26.90;13.75;;;4.80;99.90;;;;;;5046870;28;20033;-62
2023/03/09 11:57:27;;;;;;;26.63;13.38;;;4.70;99.90;;;;;;5047606;28;20040;-63
2023/03/09 12:00:05;;;;;;;28.60;14.55;;;4.70;99.90;;;;;;5048422;28;20033;-61
2023/03/09 12:02:46;;;;;;;28.95;14.23;;;4.80;99.90;;;;;;5053271;28;20052;-61
2023/03/09 12:05:14;;;;;;;30.02;14.65;;;4.80;99.90;;;;;;5045565;28;20029;-61
2023/03/09 12:07:55;;;;;;;28.40;14.65;;;4.80;99.90;;;;;;5050684;28;20037;-61
2023/03/09 12:10:27;;;;;;;26.10;14.00;;;4.80;99.90;;;;;;5051681;28;20032;-61
2023/03/09 12:13:20;;;;;;;26.15;13.45;;;4.80;99.90;;;;;;5045019;28;20450;-61
2023/03/09 12:16:02;;;;;;;29.13;14.73;;;4.90;99.90;;;;;;5044202;28;20044;-62
2023/03/09 12:18:33;;;;;;;29.10;15.27;;;4.90;99.90;;;;;;5033394;28;20052;-61
2023/03/09 12:21:01;;;;;;;30.17;15.50;;;4.90;99.90;;;;;;5051814;28;20052;-62
2023/03/09 12:23:36;;;;;;;29.00;15.35;;;5.00;99.90;;;;;;5054295;28;20075;-61
2023/03/09 12:26:22;;;;;;;28.40;15.07;;;5.00;99.90;;;;;;5036751;28;20032;-61
2023/03/09 12:29:12;;;;;;;30.02;15.02;;;5.10;99.90;;;;;;5052180;28;20040;-62
2023/03/09 12:31:38;;;;;;;26.88;14.00;;;5.20;99.90;;;;;;5044349;28;20403;-62
2023/03/09 12:34:10;;;;;;;28.05;14.68;;;5.30;99.90;;;;;;5038588;28;20021;-61
2023/03/09 12:36:40;;;;;;;26.52;14.13;;;5.40;99.90;;;;;;5052595;28;20128;-62
2023/03/09 12:39:31;;;;;;;27.98;14.45;;;5.40;99.90;;;;;;5046618;28;20125;-61
2023/03/09 12:42:00;;;;;;;28.42;13.93;;;5.60;99.90;;;;;;5038221;28;20040;-62
2023/03/09 12:45:03;;;;;;;30.25;14.80;;;5.50;99.90;;;;;;5078180;22;20131;-63
2023/03/09 12:47:44;;;;;;;27.20;14.73;;;5.60;99.90;;;;;;4947282;28;20046;-63
2023/03/09 12:50:29;;;;;;;27.05;14.10;;;5.60;99.90;;;;;;5042925;28;20076;-63